sensor_id;sensor_type;location;lat;lon;timestamp;temperature;humidity
22112;DHT22;11222;50.872;4.312;2023-08-30T00:01:30;15.70;99.90
22112;DHT22;11222;50.872;4.312;2023-08-30T00:03:56;15.70;99.90
22112;DHT22;11222;50.872;4.312;2023-08-30T00:06:21;15.70;99.90
22112;DHT22;11222;50.872;4.312;2023-08-30T00:08:47;15.70;99.90
22112;DHT22;11222;50.872;4.312;2023-08-30T00:11:13;15.60;99.90
22112;DHT22;11222;50.872;4.312;2023-08-30T00:13:39;15.50;99.90
22112;DHT22;11222;50.872;4.312;2023-08-30T00:16:06;15.50;99.90
22112;DHT22;11222;50.872;4.312;2023-08-30T00:18:32;15.30;99.90
22112;DHT22;11222;50.872;4.312;2023-08-30T00:20:57;15.20;99.90
22112;DHT22;11222;50.872;4.312;2023-08-30T00:23:23;15.20;99.90
22112;DHT22;11222;50.872;4.312;2023-08-30T00:25:49;15.20;99.90
22112;DHT22;11222;50.872;4.312;2023-08-30T00:28:15;15.20;99.90
22112;DHT22;11222;50.872;4.312;2023-08-30T00:30:40;15.20;99.90
22112;DHT22;11222;50.872;4.312;2023-08-30T00:33:06;15.20;99.90
22112;DHT22;11222;50.872;4.312;2023-08-30T00:35:31;15.20;99.90
22112;DHT22;11222;50.872;4.312;2023-08-30T00:37:57;15.20;99.90
22112;DHT22;11222;50.872;4.312;2023-08-30T00:40:23;15.20;99.90
22112;DHT22;11222;50.872;4.312;2023-08-30T00:42:49;15.10;99.90
22112;DHT22;11222;50.872;4.312;2023-08-30T00:45:15;15.10;99.90
22112;DHT22;11222;50.872;4.312;2023-08-30T00:47:40;15.10;99.90
22112;DHT22;11222;50.872;4.312;2023-08-30T00:50:06;15.00;99.90
22112;DHT22;11222;50.872;4.312;2023-08-30T00:52:32;14.90;99.90
22112;DHT22;11222;50.872;4.312;2023-08-30T00:54:58;14.90;99.90
22112;DHT22;11222;50.872;4.312;2023-08-30T00:57:24;14.90;99.90
22112;DHT22;11222;50.872;4.312;2023-08-30T00:59:50;14.90;99.90
22112;DHT22;11222;50.872;4.312;2023-08-30T01:02:16;14.90;99.90
22112;DHT22;11222;50.872;4.312;2023-08-30T01:04:42;14.80;99.90
22112;DHT22;11222;50.872;4.312;2023-08-30T01:07:08;14.80;99.90
22112;DHT22;11222;50.872;4.312;2023-08-30T01:09:33;14.80;99.90
22112;DHT22;11222;50.872;4.312;2023-08-30T01:16:59;14.80;99.90
22112;DHT22;11222;50.872;4.312;2023-08-30T01:22:17;14.60;99.90
22112;DHT22;11222;50.872;4.312;2023-08-30T01:27:29;14.50;99.90
22112;DHT22;11222;50.872;4.312;2023-08-30T01:29:57;14.50;99.90
22112;DHT22;11222;50.872;4.312;2023-08-30T01:32:23;14.50;99.90
22112;DHT22;11222;50.872;4.312;2023-08-30T01:34:51;14.60;99.90
22112;DHT22;11222;50.872;4.312;2023-08-30T01:37:16;14.60;99.90
22112;DHT22;11222;50.872;4.312;2023-08-30T01:39:42;14.60;99.90
22112;DHT22;11222;50.872;4.312;2023-08-30T01:42:08;14.60;99.90
22112;DHT22;11222;50.872;4.312;2023-08-30T01:44:34;14.60;99.90
22112;DHT22;11222;50.872;4.312;2023-08-30T01:47:00;14.60;99.90
22112;DHT22;11222;50.872;4.312;2023-08-30T01:49:26;14.60;99.90
22112;DHT22;11222;50.872;4.312;2023-08-30T01:51:51;14.70;99.90
22112;DHT22;11222;50.872;4.312;2023-08-30T01:54:18;14.70;99.90
22112;DHT22;11222;50.872;4.312;2023-08-30T01:56:44;14.70;99.90
22112;DHT22;11222;50.872;4.312;2023-08-30T01:59:10;14.70;99.90
22112;DHT22;11222;50.872;4.312;2023-08-30T02:01:36;14.60;99.90
22112;DHT22;11222;50.872;4.312;2023-08-30T02:04:01;14.60;99.90
22112;DHT22;11222;50.872;4.312;2023-08-30T02:06:30;14.60;99.90
22112;DHT22;11222;50.872;4.312;2023-08-30T02:08:59;14.60;99.90
22112;DHT22;11222;50.872;4.312;2023-08-30T02:11:27;14.70;99.90
22112;DHT22;11222;50.872;4.312;2023-08-30T02:13:54;14.70;99.90
22112;DHT22;11222;50.872;4.312;2023-08-30T02:16:19;14.80;99.90
22112;DHT22;11222;50.872;4.312;2023-08-30T02:18:46;14.90;99.90
22112;DHT22;11222;50.872;4.312;2023-08-30T02:21:12;14.90;99.90
22112;DHT22;11222;50.872;4.312;2023-08-30T02:23:38;15.00;99.90
22112;DHT22;11222;50.872;4.312;2023-08-30T02:26:03;15.10;99.90
22112;DHT22;11222;50.872;4.312;2023-08-30T02:28:29;15.10;99.90
22112;DHT22;11222;50.872;4.312;2023-08-30T02:30:54;15.20;99.90
22112;DHT22;11222;50.872;4.312;2023-08-30T02:33:20;15.20;99.90
22112;DHT22;11222;50.872;4.312;2023-08-30T02:35:46;15.10;99.90
22112;DHT22;11222;50.872;4.312;2023-08-30T02:38:11;15.20;99.90
22112;DHT22;11222;50.872;4.312;2023-08-30T02:40:37;15.20;99.90
22112;DHT22;11222;50.872;4.312;2023-08-30T02:43:02;15.20;99.90
22112;DHT22;11222;50.872;4.312;2023-08-30T02:45:28;15.20;99.90
22112;DHT22;11222;50.872;4.312;2023-08-30T02:47:56;15.20;99.90
22112;DHT22;11222;50.872;4.312;2023-08-30T02:50:23;15.20;99.90
22112;DHT22;11222;50.872;4.312;2023-08-30T02:52:48;15.30;99.90
22112;DHT22;11222;50.872;4.312;2023-08-30T02:55:14;15.40;99.90
22112;DHT22;11222;50.872;4.312;2023-08-30T02:57:39;15.50;99.90
22112;DHT22;11222;50.872;4.312;2023-08-30T03:00:05;15.50;99.90
22112;DHT22;11222;50.872;4.312;2023-08-30T03:02:31;15.50;99.90
22112;DHT22;11222;50.872;4.312;2023-08-30T03:04:58;15.40;99.90
22112;DHT22;11222;50.872;4.312;2023-08-30T03:07:24;15.40;99.90
22112;DHT22;11222;50.872;4.312;2023-08-30T03:09:53;15.50;99.90
22112;DHT22;11222;50.872;4.312;2023-08-30T03:12:22;15.30;99.90
22112;DHT22;11222;50.872;4.312;2023-08-30T03:14:50;15.40;99.90
22112;DHT22;11222;50.872;4.312;2023-08-30T03:17:16;15.50;99.90
22112;DHT22;11222;50.872;4.312;2023-08-30T03:19:41;15.50;99.90
22112;DHT22;11222;50.872;4.312;2023-08-30T03:22:07;15.40;99.90
22112;DHT22;11222;50.872;4.312;2023-08-30T03:24:32;15.40;99.90
22112;DHT22;11222;50.872;4.312;2023-08-30T03:26:58;15.50;99.90
22112;DHT22;11222;50.872;4.312;2023-08-30T03:29:25;15.50;99.90
22112;DHT22;11222;50.872;4.312;2023-08-30T03:31:50;15.40;99.90
22112;DHT22;11222;50.872;4.312;2023-08-30T03:34:16;15.50;99.90
22112;DHT22;11222;50.872;4.312;2023-08-30T03:36:41;15.50;99.90
22112;DHT22;11222;50.872;4.312;2023-08-30T03:39:09;15.50;99.90
22112;DHT22;11222;50.872;4.312;2023-08-30T03:41:34;15.50;99.90
22112;DHT22;11222;50.872;4.312;2023-08-30T03:44:00;15.50;99.90
22112;DHT22;11222;50.872;4.312;2023-08-30T03:46:25;15.50;99.90
22112;DHT22;11222;50.872;4.312;2023-08-30T03:48:51;15.60;99.90
22112;DHT22;11222;50.872;4.312;2023-08-30T03:51:17;15.60;99.90
22112;DHT22;11222;50.872;4.312;2023-08-30T03:53:43;15.60;99.90
22112;DHT22;11222;50.872;4.312;2023-08-30T03:56:08;15.60;99.90
22112;DHT22;11222;50.872;4.312;2023-08-30T03:58:34;15.60;99.90
22112;DHT22;11222;50.872;4.312;2023-08-30T04:00:59;15.60;99.90
22112;DHT22;11222;50.872;4.312;2023-08-30T04:03:25;15.50;99.90
22112;DHT22;11222;50.872;4.312;2023-08-30T04:05:57;15.50;99.90
22112;DHT22;11222;50.872;4.312;2023-08-30T04:08:23;15.60;99.90
22112;DHT22;11222;50.872;4.312;2023-08-30T04:10:52;15.50;99.90
22112;DHT22;11222;50.872;4.312;2023-08-30T04:13:18;15.60;99.90
22112;DHT22;11222;50.872;4.312;2023-08-30T04:15:44;15.60;99.90
22112;DHT22;11222;50.872;4.312;2023-08-30T04:18:09;15.60;99.90
22112;DHT22;11222;50.872;4.312;2023-08-30T04:20:35;15.60;99.90
22112;DHT22;11222;50.872;4.312;2023-08-30T04:23:01;15.50;99.90
22112;DHT22;11222;50.872;4.312;2023-08-30T04:25:30;15.50;99.90
22112;DHT22;11222;50.872;4.312;2023-08-30T04:27:56;15.40;99.90
22112;DHT22;11222;50.872;4.312;2023-08-30T04:30:23;15.30;99.90
22112;DHT22;11222;50.872;4.312;2023-08-30T04:32:48;15.30;99.90
22112;DHT22;11222;50.872;4.312;2023-08-30T04:35:14;15.10;99.90
22112;DHT22;11222;50.872;4.312;2023-08-30T04:37:40;15.00;99.90
22112;DHT22;11222;50.872;4.312;2023-08-30T04:40:09;15.00;99.90
22112;DHT22;11222;50.872;4.312;2023-08-30T04:42:35;15.00;99.90
22112;DHT22;11222;50.872;4.312;2023-08-30T04:45:02;14.90;99.90
22112;DHT22;11222;50.872;4.312;2023-08-30T04:47:29;14.90;99.90
22112;DHT22;11222;50.872;4.312;2023-08-30T04:49:55;14.80;99.90
22112;DHT22;11222;50.872;4.312;2023-08-30T04:52:21;14.70;99.90
22112;DHT22;11222;50.872;4.312;2023-08-30T04:54:46;14.80;99.90
22112;DHT22;11222;50.872;4.312;2023-08-30T04:57:14;14.80;99.90
22112;DHT22;11222;50.872;4.312;2023-08-30T04:59:41;14.80;99.90
22112;DHT22;11222;50.872;4.312;2023-08-30T05:02:07;14.80;99.90
22112;DHT22;11222;50.872;4.312;2023-08-30T05:04:33;14.80;99.90
22112;DHT22;11222;50.872;4.312;2023-08-30T05:06:59;14.80;99.90
22112;DHT22;11222;50.872;4.312;2023-08-30T05:09:25;14.70;99.90
22112;DHT22;11222;50.872;4.312;2023-08-30T05:11:51;14.70;99.90
22112;DHT22;11222;50.872;4.312;2023-08-30T05:14:17;14.70;99.90
22112;DHT22;11222;50.872;4.312;2023-08-30T05:16:42;14.70;99.90
22112;DHT22;11222;50.872;4.312;2023-08-30T05:19:08;14.60;99.90
22112;DHT22;11222;50.872;4.312;2023-08-30T05:21:34;14.50;99.90
22112;DHT22;11222;50.872;4.312;2023-08-30T05:23:59;14.50;99.90
22112;DHT22;11222;50.872;4.312;2023-08-30T05:26:25;14.50;99.90
22112;DHT22;11222;50.872;4.312;2023-08-30T05:28:51;14.50;99.90
22112;DHT22;11222;50.872;4.312;2023-08-30T05:31:17;14.50;99.90
22112;DHT22;11222;50.872;4.312;2023-08-30T05:33:43;14.50;99.90
22112;DHT22;11222;50.872;4.312;2023-08-30T05:36:08;14.50;99.90
22112;DHT22;11222;50.872;4.312;2023-08-30T05:38:34;14.50;99.90
22112;DHT22;11222;50.872;4.312;2023-08-30T05:41:01;14.60;99.90
22112;DHT22;11222;50.872;4.312;2023-08-30T05:43:26;14.60;99.90
22112;DHT22;11222;50.872;4.312;2023-08-30T05:45:52;14.70;99.90
22112;DHT22;11222;50.872;4.312;2023-08-30T05:48:18;14.60;99.90
22112;DHT22;11222;50.872;4.312;2023-08-30T05:50:43;14.60;99.90
22112;DHT22;11222;50.872;4.312;2023-08-30T05:53:10;14.70;99.90
22112;DHT22;11222;50.872;4.312;2023-08-30T05:55:36;14.70;99.90
22112;DHT22;11222;50.872;4.312;2023-08-30T05:58:02;14.70;99.90
22112;DHT22;11222;50.872;4.312;2023-08-30T06:00:28;14.70;99.90
22112;DHT22;11222;50.872;4.312;2023-08-30T06:02:54;14.70;99.90
22112;DHT22;11222;50.872;4.312;2023-08-30T06:05:19;14.70;99.90
22112;DHT22;11222;50.872;4.312;2023-08-30T06:07:45;14.80;99.90
22112;DHT22;11222;50.872;4.312;2023-08-30T06:10:10;14.70;99.90
22112;DHT22;11222;50.872;4.312;2023-08-30T06:12:36;14.80;99.90
22112;DHT22;11222;50.872;4.312;2023-08-30T06:15:02;14.80;99.90
22112;DHT22;11222;50.872;4.312;2023-08-30T06:17:29;14.80;99.90
22112;DHT22;11222;50.872;4.312;2023-08-30T08:09:44;15.20;99.90
22112;DHT22;11222;50.872;4.312;2023-08-30T08:12:10;15.20;99.90
22112;DHT22;11222;50.872;4.312;2023-08-30T08:14:35;15.20;99.90
22112;DHT22;11222;50.872;4.312;2023-08-30T08:17:01;15.40;99.90
22112;DHT22;11222;50.872;4.312;2023-08-30T08:19:27;15.40;99.90
22112;DHT22;11222;50.872;4.312;2023-08-30T08:21:52;15.50;99.90
22112;DHT22;11222;50.872;4.312;2023-08-30T08:24:21;15.60;99.90
22112;DHT22;11222;50.872;4.312;2023-08-30T08:26:47;15.60;99.90
22112;DHT22;11222;50.872;4.312;2023-08-30T08:29:12;15.60;99.90
22112;DHT22;11222;50.872;4.312;2023-08-30T08:31:39;15.80;99.90
22112;DHT22;11222;50.872;4.312;2023-08-30T08:34:10;15.90;99.90
22112;DHT22;11222;50.872;4.312;2023-08-30T08:36:37;15.90;99.90
22112;DHT22;11222;50.872;4.312;2023-08-30T08:39:03;16.00;99.90
22112;DHT22;11222;50.872;4.312;2023-08-30T08:41:44;16.20;99.90
22112;DHT22;11222;50.872;4.312;2023-08-30T08:44:11;16.40;99.90
22112;DHT22;11222;50.872;4.312;2023-08-30T08:46:38;16.60;99.90
22112;DHT22;11222;50.872;4.312;2023-08-30T08:49:15;16.70;99.90
22112;DHT22;11222;50.872;4.312;2023-08-30T08:51:43;16.70;99.90
22112;DHT22;11222;50.872;4.312;2023-08-30T08:54:10;16.70;99.90
22112;DHT22;11222;50.872;4.312;2023-08-30T08:56:36;16.80;99.90
22112;DHT22;11222;50.872;4.312;2023-08-30T08:59:02;16.90;99.90
22112;DHT22;11222;50.872;4.312;2023-08-30T09:01:28;16.90;99.90
22112;DHT22;11222;50.872;4.312;2023-08-30T09:03:54;17.00;99.90
22112;DHT22;11222;50.872;4.312;2023-08-30T09:06:21;17.20;99.90
22112;DHT22;11222;50.872;4.312;2023-08-30T09:08:47;17.10;99.90
22112;DHT22;11222;50.872;4.312;2023-08-30T09:11:13;17.20;99.90
22112;DHT22;11222;50.872;4.312;2023-08-30T09:13:38;17.30;99.90
22112;DHT22;11222;50.872;4.312;2023-08-30T09:16:13;17.20;99.90
22112;DHT22;11222;50.872;4.312;2023-08-30T09:18:43;17.20;99.90
22112;DHT22;11222;50.872;4.312;2023-08-30T09:21:10;17.20;99.90
22112;DHT22;11222;50.872;4.312;2023-08-30T09:23:37;17.20;99.90
22112;DHT22;11222;50.872;4.312;2023-08-30T09:26:04;17.40;99.90
22112;DHT22;11222;50.872;4.312;2023-08-30T09:28:30;17.50;99.90
22112;DHT22;11222;50.872;4.312;2023-08-30T09:30:58;17.40;99.90
22112;DHT22;11222;50.872;4.312;2023-08-30T09:33:32;17.30;99.90
22112;DHT22;11222;50.872;4.312;2023-08-30T09:35:58;17.30;99.90
22112;DHT22;11222;50.872;4.312;2023-08-30T09:38:24;17.30;99.90
22112;DHT22;11222;50.872;4.312;2023-08-30T09:40:50;17.30;99.90
22112;DHT22;11222;50.872;4.312;2023-08-30T09:43:19;17.40;99.90
22112;DHT22;11222;50.872;4.312;2023-08-30T09:45:47;17.30;99.90
22112;DHT22;11222;50.872;4.312;2023-08-30T09:48:22;17.30;99.90
22112;DHT22;11222;50.872;4.312;2023-08-30T09:50:52;17.20;99.90
22112;DHT22;11222;50.872;4.312;2023-08-30T09:53:21;17.10;99.90
22112;DHT22;11222;50.872;4.312;2023-08-30T09:55:49;17.10;99.90
22112;DHT22;11222;50.872;4.312;2023-08-30T09:58:15;17.20;99.90
22112;DHT22;11222;50.872;4.312;2023-08-30T10:00:42;17.10;99.90
22112;DHT22;11222;50.872;4.312;2023-08-30T10:03:08;17.00;99.90
22112;DHT22;11222;50.872;4.312;2023-08-30T10:05:35;17.00;99.90
22112;DHT22;11222;50.872;4.312;2023-08-30T10:08:02;17.00;99.90
22112;DHT22;11222;50.872;4.312;2023-08-30T10:10:31;16.90;99.90
22112;DHT22;11222;50.872;4.312;2023-08-30T10:12:57;16.90;99.90
22112;DHT22;11222;50.872;4.312;2023-08-30T10:15:23;16.90;99.90
22112;DHT22;11222;50.872;4.312;2023-08-30T10:17:54;17.10;99.90
22112;DHT22;11222;50.872;4.312;2023-08-30T10:20:21;17.20;99.90
22112;DHT22;11222;50.872;4.312;2023-08-30T10:22:48;17.40;99.90
22112;DHT22;11222;50.872;4.312;2023-08-30T10:25:22;17.70;99.90
22112;DHT22;11222;50.872;4.312;2023-08-30T10:27:50;18.20;99.90
22112;DHT22;11222;50.872;4.312;2023-08-30T10:30:17;18.70;99.90
22112;DHT22;11222;50.872;4.312;2023-08-30T10:32:44;19.10;99.90
22112;DHT22;11222;50.872;4.312;2023-08-30T10:35:18;19.20;99.90
22112;DHT22;11222;50.872;4.312;2023-08-30T10:37:59;18.90;99.90
22112;DHT22;11222;50.872;4.312;2023-08-30T10:40:25;18.70;99.90
22112;DHT22;11222;50.872;4.312;2023-08-30T10:43:02;18.40;99.90
22112;DHT22;11222;50.872;4.312;2023-08-30T10:45:27;18.40;99.90
22112;DHT22;11222;50.872;4.312;2023-08-30T10:48:00;18.60;99.90
22112;DHT22;11222;50.872;4.312;2023-08-30T10:50:30;18.70;99.90
22112;DHT22;11222;50.872;4.312;2023-08-30T10:52:56;18.70;99.90
22112;DHT22;11222;50.872;4.312;2023-08-30T10:55:23;18.70;99.90
22112;DHT22;11222;50.872;4.312;2023-08-30T10:58:00;18.60;99.90
22112;DHT22;11222;50.872;4.312;2023-08-30T11:00:28;18.50;99.90
22112;DHT22;11222;50.872;4.312;2023-08-30T11:02:55;18.60;99.90
22112;DHT22;11222;50.872;4.312;2023-08-30T11:05:25;18.70;99.90
22112;DHT22;11222;50.872;4.312;2023-08-30T11:07:51;18.60;99.90
22112;DHT22;11222;50.872;4.312;2023-08-30T11:10:18;18.70;99.90
22112;DHT22;11222;50.872;4.312;2023-08-30T11:12:45;18.50;99.90
22112;DHT22;11222;50.872;4.312;2023-08-30T11:15:11;18.60;99.90
22112;DHT22;11222;50.872;4.312;2023-08-30T11:17:39;19.10;99.90
22112;DHT22;11222;50.872;4.312;2023-08-30T11:20:10;19.90;99.90
22112;DHT22;11222;50.872;4.312;2023-08-30T11:22:44;20.00;99.90
22112;DHT22;11222;50.872;4.312;2023-08-30T11:25:11;20.20;99.90
22112;DHT22;11222;50.872;4.312;2023-08-30T11:27:38;20.00;99.90
22112;DHT22;11222;50.872;4.312;2023-08-30T11:30:05;19.60;99.90
22112;DHT22;11222;50.872;4.312;2023-08-30T11:32:41;19.60;99.90
22112;DHT22;11222;50.872;4.312;2023-08-30T11:35:10;19.30;99.90
22112;DHT22;11222;50.872;4.312;2023-08-30T11:37:36;19.50;99.90
22112;DHT22;11222;50.872;4.312;2023-08-30T11:40:03;19.80;99.90
22112;DHT22;11222;50.872;4.312;2023-08-30T11:42:31;20.30;99.90
22112;DHT22;11222;50.872;4.312;2023-08-30T11:44:58;20.20;99.90
22112;DHT22;11222;50.872;4.312;2023-08-30T11:47:25;20.40;99.90
22112;DHT22;11222;50.872;4.312;2023-08-30T11:49:58;20.60;99.90
22112;DHT22;11222;50.872;4.312;2023-08-30T11:52:25;21.80;99.90
22112;DHT22;11222;50.872;4.312;2023-08-30T11:54:52;22.10;99.90
22112;DHT22;11222;50.872;4.312;2023-08-30T11:57:18;21.70;99.90
22112;DHT22;11222;50.872;4.312;2023-08-30T11:59:43;21.00;99.90
22112;DHT22;11222;50.872;4.312;2023-08-30T12:02:11;20.40;99.90
22112;DHT22;11222;50.872;4.312;2023-08-30T12:04:45;20.20;99.90
22112;DHT22;11222;50.872;4.312;2023-08-30T12:07:24;20.40;99.90
22112;DHT22;11222;50.872;4.312;2023-08-30T12:09:50;20.50;99.90
22112;DHT22;11222;50.872;4.312;2023-08-30T12:12:16;20.30;99.90
22112;DHT22;11222;50.872;4.312;2023-08-30T12:14:42;20.00;99.90
22112;DHT22;11222;50.872;4.312;2023-08-30T12:17:08;20.10;99.90
22112;DHT22;11222;50.872;4.312;2023-08-30T12:19:36;20.00;99.90
22112;DHT22;11222;50.872;4.312;2023-08-30T12:22:06;20.10;99.90
22112;DHT22;11222;50.872;4.312;2023-08-30T12:24:46;20.60;99.90
22112;DHT22;11222;50.872;4.312;2023-08-30T12:27:12;20.70;99.90
22112;DHT22;11222;50.872;4.312;2023-08-30T12:29:38;20.60;99.90
22112;DHT22;11222;50.872;4.312;2023-08-30T12:32:04;20.50;99.90
22112;DHT22;11222;50.872;4.312;2023-08-30T12:34:30;20.30;99.90
22112;DHT22;11222;50.872;4.312;2023-08-30T12:36:55;20.10;99.90
22112;DHT22;11222;50.872;4.312;2023-08-30T12:39:21;20.00;99.90
22112;DHT22;11222;50.872;4.312;2023-08-30T12:41:47;20.20;99.90
22112;DHT22;11222;50.872;4.312;2023-08-30T12:44:12;20.30;99.90
22112;DHT22;11222;50.872;4.312;2023-08-30T12:46:38;20.30;99.90
22112;DHT22;11222;50.872;4.312;2023-08-30T12:49:04;19.90;99.90
22112;DHT22;11222;50.872;4.312;2023-08-30T12:51:30;19.60;99.90
22112;DHT22;11222;50.872;4.312;2023-08-30T12:53:56;19.80;99.90
22112;DHT22;11222;50.872;4.312;2023-08-30T12:56:22;20.00;99.90
22112;DHT22;11222;50.872;4.312;2023-08-30T12:58:48;20.10;99.90
22112;DHT22;11222;50.872;4.312;2023-08-30T13:01:15;20.00;99.90
22112;DHT22;11222;50.872;4.312;2023-08-30T13:03:40;20.10;99.90
22112;DHT22;11222;50.872;4.312;2023-08-30T13:06:06;20.20;99.90
22112;DHT22;11222;50.872;4.312;2023-08-30T13:08:32;20.20;99.90
22112;DHT22;11222;50.872;4.312;2023-08-30T13:11:01;20.40;99.90
22112;DHT22;11222;50.872;4.312;2023-08-30T13:13:27;20.60;99.90
22112;DHT22;11222;50.872;4.312;2023-08-30T13:15:52;20.40;99.90
22112;DHT22;11222;50.872;4.312;2023-08-30T13:18:18;20.30;99.90
22112;DHT22;11222;50.872;4.312;2023-08-30T13:20:44;20.40;99.90
22112;DHT22;11222;50.872;4.312;2023-08-30T13:23:10;20.50;99.90
22112;DHT22;11222;50.872;4.312;2023-08-30T13:25:42;20.40;99.90
22112;DHT22;11222;50.872;4.312;2023-08-30T13:28:07;20.20;99.90
22112;DHT22;11222;50.872;4.312;2023-08-30T13:30:33;20.10;99.90
22112;DHT22;11222;50.872;4.312;2023-08-30T13:32:59;20.00;99.90
22112;DHT22;11222;50.872;4.312;2023-08-30T13:35:26;20.00;99.90
22112;DHT22;11222;50.872;4.312;2023-08-30T13:37:52;20.10;99.90
22112;DHT22;11222;50.872;4.312;2023-08-30T13:40:18;20.20;99.90
22112;DHT22;11222;50.872;4.312;2023-08-30T13:42:43;20.20;99.90
22112;DHT22;11222;50.872;4.312;2023-08-30T13:45:09;20.20;99.90
22112;DHT22;11222;50.872;4.312;2023-08-30T13:47:35;20.40;99.90
22112;DHT22;11222;50.872;4.312;2023-08-30T13:50:03;20.00;99.90
22112;DHT22;11222;50.872;4.312;2023-08-30T13:52:29;20.10;99.90
22112;DHT22;11222;50.872;4.312;2023-08-30T13:54:55;20.00;99.90
22112;DHT22;11222;50.872;4.312;2023-08-30T13:57:22;19.50;99.90
22112;DHT22;11222;50.872;4.312;2023-08-30T13:59:48;19.20;99.90
22112;DHT22;11222;50.872;4.312;2023-08-30T14:02:13;19.10;99.90
22112;DHT22;11222;50.872;4.312;2023-08-30T14:04:39;19.00;99.90
22112;DHT22;11222;50.872;4.312;2023-08-30T14:07:05;19.00;99.90
22112;DHT22;11222;50.872;4.312;2023-08-30T14:09:30;19.20;99.90
22112;DHT22;11222;50.872;4.312;2023-08-30T14:11:57;19.50;99.90
22112;DHT22;11222;50.872;4.312;2023-08-30T14:14:23;19.60;99.90
22112;DHT22;11222;50.872;4.312;2023-08-30T14:16:49;19.80;99.90
22112;DHT22;11222;50.872;4.312;2023-08-30T14:19:15;20.20;99.90
22112;DHT22;11222;50.872;4.312;2023-08-30T14:21:41;20.50;99.90
22112;DHT22;11222;50.872;4.312;2023-08-30T14:24:07;20.50;99.90
22112;DHT22;11222;50.872;4.312;2023-08-30T14:26:32;20.10;99.90
22112;DHT22;11222;50.872;4.312;2023-08-30T14:28:58;19.90;99.90
22112;DHT22;11222;50.872;4.312;2023-08-30T14:31:24;19.80;99.90
22112;DHT22;11222;50.872;4.312;2023-08-30T14:33:53;19.70;99.90
22112;DHT22;11222;50.872;4.312;2023-08-30T14:36:19;19.90;99.90
22112;DHT22;11222;50.872;4.312;2023-08-30T14:38:45;20.00;99.90
22112;DHT22;11222;50.872;4.312;2023-08-30T14:41:10;20.10;99.90
22112;DHT22;11222;50.872;4.312;2023-08-30T14:43:37;20.10;99.90
22112;DHT22;11222;50.872;4.312;2023-08-30T14:46:03;20.10;99.90
22112;DHT22;11222;50.872;4.312;2023-08-30T14:48:29;19.70;99.90
22112;DHT22;11222;50.872;4.312;2023-08-30T14:50:57;19.70;99.90
22112;DHT22;11222;50.872;4.312;2023-08-30T14:53:23;19.80;99.90
22112;DHT22;11222;50.872;4.312;2023-08-30T14:55:48;20.10;99.90
22112;DHT22;11222;50.872;4.312;2023-08-30T14:58:14;20.40;99.90
22112;DHT22;11222;50.872;4.312;2023-08-30T15:00:40;20.60;99.90
22112;DHT22;11222;50.872;4.312;2023-08-30T15:03:06;20.40;99.90
22112;DHT22;11222;50.872;4.312;2023-08-30T15:05:32;19.80;99.90
22112;DHT22;11222;50.872;4.312;2023-08-30T15:07:58;19.70;99.90
22112;DHT22;11222;50.872;4.312;2023-08-30T15:10:24;19.60;99.90
22112;DHT22;11222;50.872;4.312;2023-08-30T15:12:49;19.60;99.90
22112;DHT22;11222;50.872;4.312;2023-08-30T15:15:15;19.70;99.90
22112;DHT22;11222;50.872;4.312;2023-08-30T15:17:41;19.60;99.90
22112;DHT22;11222;50.872;4.312;2023-08-30T15:20:07;19.70;99.90
22112;DHT22;11222;50.872;4.312;2023-08-30T15:22:34;19.50;99.90
22112;DHT22;11222;50.872;4.312;2023-08-30T15:25:00;19.60;99.90
22112;DHT22;11222;50.872;4.312;2023-08-30T15:27:28;19.70;99.90
22112;DHT22;11222;50.872;4.312;2023-08-30T15:29:54;19.70;99.90
22112;DHT22;11222;50.872;4.312;2023-08-30T15:32:21;19.90;99.90
22112;DHT22;11222;50.872;4.312;2023-08-30T15:34:48;20.00;99.90
22112;DHT22;11222;50.872;4.312;2023-08-30T15:37:13;20.00;99.90
22112;DHT22;11222;50.872;4.312;2023-08-30T15:39:40;20.00;99.90
22112;DHT22;11222;50.872;4.312;2023-08-30T15:42:05;20.20;99.90
22112;DHT22;11222;50.872;4.312;2023-08-30T15:44:31;20.30;99.90
22112;DHT22;11222;50.872;4.312;2023-08-30T15:46:57;20.20;99.90
22112;DHT22;11222;50.872;4.312;2023-08-30T15:49:23;20.20;99.90
22112;DHT22;11222;50.872;4.312;2023-08-30T15:51:48;20.00;99.90
22112;DHT22;11222;50.872;4.312;2023-08-30T15:54:14;19.70;99.90
22112;DHT22;11222;50.872;4.312;2023-08-30T15:56:41;19.60;99.90
22112;DHT22;11222;50.872;4.312;2023-08-30T15:59:09;19.70;99.90
22112;DHT22;11222;50.872;4.312;2023-08-30T16:01:34;19.70;99.90
22112;DHT22;11222;50.872;4.312;2023-08-30T16:04:00;19.50;99.90
22112;DHT22;11222;50.872;4.312;2023-08-30T16:06:25;19.50;99.90
22112;DHT22;11222;50.872;4.312;2023-08-30T16:08:51;19.50;99.90
22112;DHT22;11222;50.872;4.312;2023-08-30T16:11:17;19.30;99.90
22112;DHT22;11222;50.872;4.312;2023-08-30T16:13:43;19.20;99.90
22112;DHT22;11222;50.872;4.312;2023-08-30T16:16:09;19.00;99.90
22112;DHT22;11222;50.872;4.312;2023-08-30T16:18:34;18.80;99.90
22112;DHT22;11222;50.872;4.312;2023-08-30T16:21:00;18.80;99.90
22112;DHT22;11222;50.872;4.312;2023-08-30T16:23:26;18.60;99.90
22112;DHT22;11222;50.872;4.312;2023-08-30T16:25:59;18.60;99.90
22112;DHT22;11222;50.872;4.312;2023-08-30T16:28:25;18.50;99.90
22112;DHT22;11222;50.872;4.312;2023-08-30T16:30:57;18.50;99.90
22112;DHT22;11222;50.872;4.312;2023-08-30T16:33:24;18.60;99.90
22112;DHT22;11222;50.872;4.312;2023-08-30T16:35:50;18.60;99.90
22112;DHT22;11222;50.872;4.312;2023-08-30T16:38:16;18.60;99.90
22112;DHT22;11222;50.872;4.312;2023-08-30T16:40:41;18.60;99.90
22112;DHT22;11222;50.872;4.312;2023-08-30T16:43:07;18.60;99.90
22112;DHT22;11222;50.872;4.312;2023-08-30T16:45:33;18.80;99.90
22112;DHT22;11222;50.872;4.312;2023-08-30T16:47:58;19.10;99.90
22112;DHT22;11222;50.872;4.312;2023-08-30T16:50:24;19.50;99.90
22112;DHT22;11222;50.872;4.312;2023-08-30T16:52:50;19.80;99.90
22112;DHT22;11222;50.872;4.312;2023-08-30T16:55:15;20.00;99.90
22112;DHT22;11222;50.872;4.312;2023-08-30T16:57:42;19.90;99.90
22112;DHT22;11222;50.872;4.312;2023-08-30T17:00:08;19.30;99.90
22112;DHT22;11222;50.872;4.312;2023-08-30T17:02:35;19.00;99.90
22112;DHT22;11222;50.872;4.312;2023-08-30T17:05:02;18.60;99.90
22112;DHT22;11222;50.872;4.312;2023-08-30T17:07:28;18.40;99.90
22112;DHT22;11222;50.872;4.312;2023-08-30T17:09:54;18.20;99.90
22112;DHT22;11222;50.872;4.312;2023-08-30T17:12:21;18.10;99.90
22112;DHT22;11222;50.872;4.312;2023-08-30T17:14:47;18.10;99.90
22112;DHT22;11222;50.872;4.312;2023-08-30T17:17:12;17.90;99.90
22112;DHT22;11222;50.872;4.312;2023-08-30T17:19:38;17.90;99.90
22112;DHT22;11222;50.872;4.312;2023-08-30T17:22:04;17.80;99.90
22112;DHT22;11222;50.872;4.312;2023-08-30T17:24:30;17.80;99.90
22112;DHT22;11222;50.872;4.312;2023-08-30T17:26:57;17.90;99.90